createdAt,value
2022-09-24T00:00:33.189Z,12.97
2022-09-24T00:02:36.195Z,12.96
2022-09-24T00:04:39.229Z,12.98
2022-09-24T00:06:44.382Z,12.99
2022-09-24T00:08:48.699Z,12.97
2022-09-24T00:10:52.998Z,12.98
2022-09-24T00:12:56.214Z,12.98
2022-09-24T00:14:59.108Z,12.98
2022-09-24T00:17:02.038Z,12.99
2022-09-24T00:19:05.223Z,12.98
2022-09-24T00:21:19.677Z,12.99
2022-09-24T00:23:22.725Z,12.99
2022-09-24T00:25:43.362Z,12.98
2022-09-24T00:27:47.653Z,12.96
2022-09-24T00:29:50.639Z,12.98
2022-09-24T00:31:54.258Z,13.00
2022-09-24T00:33:58.213Z,12.99
2022-09-24T00:36:02.454Z,13.00
2022-09-24T00:38:06.188Z,12.99
2022-09-24T00:40:10.866Z,12.97
2022-09-24T00:42:14.005Z,12.96
2022-09-24T00:44:53.705Z,12.98
2022-09-24T00:46:58.221Z,12.96
2022-09-24T00:49:03.896Z,12.94
2022-09-24T00:51:07.059Z,12.96
2022-09-24T00:53:13.153Z,12.94
2022-09-24T00:55:16.495Z,12.94
2022-09-24T00:57:19.491Z,12.94
2022-09-24T00:59:24.558Z,12.95
2022-09-24T01:01:27.514Z,12.95
2022-09-24T01:03:33.427Z,12.95
2022-09-24T01:05:36.988Z,12.96
2022-09-24T01:07:39.957Z,12.95
2022-09-24T01:09:43.040Z,12.95
2022-09-24T01:11:49.960Z,12.93
2022-09-24T01:14:14.687Z,12.90
2022-09-24T01:16:26.377Z,12.89
2022-09-24T01:18:36.970Z,12.89
2022-09-24T01:20:57.734Z,12.88
2022-09-24T01:23:12.531Z,12.88
2022-09-24T01:25:21.764Z,12.84
2022-09-24T01:27:38.205Z,12.84
2022-09-24T01:29:49.800Z,12.83
2022-09-24T01:31:55.379Z,12.85
2022-09-24T01:34:00.376Z,12.85
2022-09-24T01:36:08.224Z,12.87
2022-09-24T01:38:15.187Z,12.85
2022-09-24T01:40:19.528Z,12.84
2022-09-24T01:42:23.433Z,12.80
2022-09-24T01:44:26.601Z,12.81
2022-09-24T01:46:31.967Z,12.80
2022-09-24T01:48:37.294Z,12.81
2022-09-24T01:50:45.053Z,12.80
2022-09-24T01:52:52.118Z,12.80
2022-09-24T01:54:56.428Z,12.80
2022-09-24T01:57:05.109Z,12.80
2022-09-24T01:59:12.983Z,12.80
2022-09-24T02:01:19.123Z,12.78
2022-09-24T02:03:28.805Z,12.75
2022-09-24T02:05:34.121Z,12.73
2022-09-24T02:07:40.700Z,12.73
2022-09-24T02:09:44.783Z,12.72
2022-09-24T02:11:50.896Z,12.73
2022-09-24T02:13:56.882Z,12.71
2022-09-24T02:16:01.291Z,12.71
2022-09-24T02:18:08.138Z,12.72
2022-09-24T02:20:15.121Z,12.70
2022-09-24T02:22:18.709Z,12.67
2022-09-24T02:24:24.073Z,12.64
2022-09-24T02:26:27.005Z,12.60
2022-09-24T02:28:30.468Z,12.57
2022-09-24T02:30:37.802Z,12.56
2022-09-24T02:32:42.118Z,12.55
2022-09-24T02:34:47.223Z,12.52
2022-09-24T02:36:54.024Z,12.51
2022-09-24T02:38:57.222Z,12.50
2022-09-24T02:41:00.150Z,12.48
2022-09-24T02:43:03.101Z,12.46
2022-09-24T02:45:08.031Z,12.45
2022-09-24T02:47:10.995Z,12.46
2022-09-24T02:49:14.135Z,12.47
2022-09-24T02:51:17.135Z,12.47
2022-09-24T02:53:21.402Z,12.46
2022-09-24T02:55:24.313Z,12.48
2022-09-24T02:57:27.239Z,12.47
2022-09-24T02:59:30.206Z,12.50
2022-09-24T03:01:33.727Z,12.48
2022-09-24T03:03:36.779Z,12.49
2022-09-24T03:05:39.716Z,12.47
2022-09-24T03:07:45.727Z,12.41
2022-09-24T03:09:53.387Z,12.36
2022-09-24T03:11:56.777Z,12.33
2022-09-24T03:14:00.496Z,12.31
2022-09-24T03:16:03.964Z,12.31
2022-09-24T03:18:07.485Z,12.33
2022-09-24T03:20:10.748Z,12.33
2022-09-24T03:22:13.677Z,12.34
2022-09-24T03:24:16.583Z,12.36
2022-09-24T03:26:20.883Z,12.38
2022-09-24T03:28:24.052Z,12.38
2022-09-24T03:30:44.551Z,12.38
2022-09-24T03:32:48.770Z,12.37
2022-09-24T03:34:51.688Z,12.36
2022-09-24T03:36:54.600Z,12.36
2022-09-24T03:38:58.478Z,12.34
2022-09-24T03:41:02.060Z,12.34
2022-09-24T03:43:06.313Z,12.35
2022-09-24T03:45:10.183Z,12.36
2022-09-24T03:47:13.564Z,12.37
2022-09-24T03:49:17.013Z,12.38
2022-09-24T03:51:20.522Z,12.36
2022-09-24T03:53:23.600Z,12.38
2022-09-24T03:55:26.640Z,12.38
2022-09-24T03:57:29.519Z,12.39
2022-09-24T03:59:33.879Z,12.38
2022-09-24T04:01:37.353Z,12.35
2022-09-24T04:03:40.675Z,12.36
2022-09-24T04:05:43.700Z,12.35
2022-09-24T04:07:46.780Z,12.36
2022-09-24T04:09:49.689Z,12.36
2022-09-24T04:11:53.361Z,12.32
2022-09-24T04:13:56.242Z,12.32
2022-09-24T04:16:04.665Z,12.32
2022-09-24T04:18:07.954Z,12.33
2022-09-24T04:20:12.933Z,12.34
2022-09-24T04:22:15.818Z,12.34
2022-09-24T04:24:19.053Z,12.35
2022-09-24T04:26:21.923Z,12.34
2022-09-24T04:28:25.194Z,12.32
2022-09-24T04:30:28.941Z,12.31
2022-09-24T04:32:33.403Z,12.30
2022-09-24T04:34:36.385Z,12.32
2022-09-24T04:36:39.316Z,12.32
2022-09-24T04:38:42.287Z,12.30
2022-09-24T04:40:47.222Z,12.32
2022-09-24T04:42:50.414Z,12.32
2022-09-24T04:44:56.139Z,12.31
2022-09-24T04:47:03.015Z,12.31
2022-09-24T04:49:09.632Z,12.29
2022-09-24T04:51:12.722Z,12.29
2022-09-24T04:53:15.640Z,12.26
2022-09-24T04:55:20.693Z,12.27
2022-09-24T04:57:23.734Z,12.27
2022-09-24T04:59:26.695Z,12.28
2022-09-24T05:01:30.212Z,12.31
2022-09-24T05:03:33.218Z,12.30
2022-09-24T05:05:37.606Z,12.31
2022-09-24T05:07:40.951Z,12.31
2022-09-24T05:09:43.948Z,12.30
2022-09-24T05:11:46.897Z,12.29
2022-09-24T05:13:49.900Z,12.26
2022-09-24T05:15:52.880Z,12.26
2022-09-24T05:17:55.875Z,12.25
2022-09-24T05:19:59.609Z,12.25
2022-09-24T05:22:03.975Z,12.28
2022-09-24T05:24:07.432Z,12.29
2022-09-24T05:26:27.657Z,12.32
2022-09-24T05:28:33.111Z,12.32
2022-09-24T05:30:37.010Z,12.31
2022-09-24T05:32:40.146Z,12.31
2022-09-24T05:34:43.600Z,12.29
2022-09-24T05:36:46.697Z,12.28
2022-09-24T05:38:50.979Z,12.25
2022-09-24T05:40:54.829Z,12.26
2022-09-24T05:43:01.268Z,12.26
2022-09-24T05:45:05.053Z,12.26
2022-09-24T05:47:08.062Z,12.28
2022-09-24T05:49:11.045Z,12.33
2022-09-24T05:51:14.073Z,12.37
2022-09-24T05:53:17.048Z,12.40
2022-09-24T05:55:21.432Z,12.42
2022-09-24T05:57:24.352Z,12.44
2022-09-24T05:59:27.673Z,12.48
2022-09-24T06:01:31.222Z,12.52
2022-09-24T06:03:34.295Z,12.56
2022-09-24T06:05:37.307Z,12.60
2022-09-24T06:07:40.570Z,12.63
2022-09-24T06:09:44.133Z,12.68
2022-09-24T06:11:50.387Z,12.71
2022-09-24T06:13:53.330Z,12.73
2022-09-24T06:16:01.467Z,12.76
2022-09-24T06:18:04.508Z,12.77
2022-09-24T06:20:16.455Z,12.82
2022-09-24T06:22:22.049Z,12.87
2022-09-24T06:24:26.909Z,12.93
2022-09-24T06:26:29.834Z,12.97
2022-09-24T06:28:34.144Z,13.05
2022-09-24T06:30:38.755Z,13.05
2022-09-24T06:32:41.709Z,13.07
2022-09-24T06:34:44.653Z,13.07
2022-09-24T06:36:47.575Z,13.08
2022-09-24T06:38:52.274Z,13.07
2022-09-24T06:40:59.964Z,13.09
2022-09-24T06:43:03.014Z,13.11
2022-09-24T06:45:08.720Z,13.11
2022-09-24T06:47:12.597Z,13.16
2022-09-24T06:49:15.554Z,13.17
2022-09-24T06:51:18.643Z,13.19
2022-09-24T06:53:21.676Z,13.24
2022-09-24T06:55:24.840Z,13.28
2022-09-24T06:57:29.013Z,13.33
2022-09-24T06:59:32.106Z,13.40
2022-09-24T07:01:36.622Z,13.47
2022-09-24T07:03:40.256Z,13.55
2022-09-24T07:05:44.061Z,13.59
2022-09-24T07:07:47.176Z,13.64
2022-09-24T07:09:50.157Z,13.68
2022-09-24T07:11:53.100Z,13.70
2022-09-24T07:13:56.071Z,13.73
2022-09-24T07:16:01.408Z,13.72
2022-09-24T07:18:05.983Z,13.77
2022-09-24T07:20:09.947Z,13.85
2022-09-24T07:22:12.949Z,13.93
2022-09-24T07:24:15.903Z,13.99
2022-09-24T07:26:18.952Z,14.03
2022-09-24T07:28:21.872Z,14.09
2022-09-24T07:30:27.197Z,14.15
2022-09-24T07:32:30.830Z,14.23
2022-09-24T07:34:35.181Z,14.30
2022-09-24T07:36:38.138Z,14.34
2022-09-24T07:38:41.114Z,14.38
2022-09-24T07:40:44.906Z,14.46
2022-09-24T07:42:48.377Z,14.51
2022-09-24T07:44:51.376Z,14.55
2022-09-24T07:46:54.457Z,14.58
2022-09-24T07:48:57.407Z,14.61
2022-09-24T07:51:01.753Z,14.64
2022-09-24T07:53:04.734Z,14.64
2022-09-24T07:55:09.155Z,14.68
2022-09-24T07:57:13.778Z,14.73
2022-09-24T07:59:16.718Z,14.77
2022-09-24T08:01:20.382Z,14.80
2022-09-24T08:03:23.521Z,14.85
2022-09-24T08:05:26.521Z,14.89
2022-09-24T08:07:30.818Z,14.91
2022-09-24T08:09:33.846Z,14.93
2022-09-24T08:11:36.889Z,14.96
2022-09-24T08:13:40.051Z,15.04
2022-09-24T08:15:43.071Z,15.08
2022-09-24T08:17:46.326Z,15.12
2022-09-24T08:19:49.267Z,15.17
2022-09-24T08:21:53.927Z,15.20
2022-09-24T08:23:58.271Z,15.24
2022-09-24T08:26:01.278Z,15.26
2022-09-24T08:28:05.011Z,15.30
2022-09-24T08:30:09.291Z,15.30
2022-09-24T08:32:12.952Z,15.34
2022-09-24T08:34:16.212Z,15.38
2022-09-24T08:36:19.289Z,15.39
2022-09-24T08:38:22.454Z,15.40
2022-09-24T08:40:30.169Z,15.44
2022-09-24T08:42:38.251Z,15.47
2022-09-24T08:45:01.097Z,15.53
2022-09-24T08:47:22.245Z,15.57
2022-09-24T08:49:29.136Z,15.62
2022-09-24T08:51:37.547Z,15.70
2022-09-24T08:53:46.151Z,15.77
2022-09-24T08:55:52.492Z,15.82
2022-09-24T08:58:00.611Z,15.90
2022-09-24T09:00:04.504Z,15.96
2022-09-24T09:02:19.350Z,16.04
2022-09-24T09:04:26.995Z,16.17
2022-09-24T09:06:53.788Z,16.48
2022-09-24T09:09:16.599Z,16.76
2022-09-24T09:11:24.023Z,16.83
2022-09-24T09:13:29.521Z,16.74
2022-09-24T09:15:35.079Z,16.72
2022-09-24T09:17:45.272Z,16.81
2022-09-24T09:19:53.838Z,16.89
2022-09-24T09:21:58.645Z,16.95
2022-09-24T09:24:03.065Z,17.05
2022-09-24T09:26:06.895Z,17.19
2022-09-24T09:28:15.343Z,17.27
2022-09-24T09:30:20.843Z,17.34
2022-09-24T09:32:32.314Z,17.50
2022-09-24T09:34:50.998Z,17.82
2022-09-24T09:37:04.963Z,18.06
2022-09-24T09:39:21.179Z,18.17
2022-09-24T09:41:30.397Z,18.25
2022-09-24T09:43:35.356Z,18.19
2022-09-24T09:45:43.104Z,18.19
2022-09-24T09:47:48.574Z,18.38
2022-09-24T09:49:53.923Z,18.62
2022-09-24T09:51:57.800Z,18.63
2022-09-24T09:54:02.085Z,18.65
2022-09-24T09:56:07.440Z,18.85
2022-09-24T09:58:19.769Z,18.98
2022-09-24T10:00:28.862Z,19.08
2022-09-24T10:02:33.553Z,19.14
2022-09-24T10:04:40.280Z,19.13
2022-09-24T10:06:43.228Z,19.12
2022-09-24T10:08:46.155Z,19.15
2022-09-24T10:10:55.293Z,19.08
2022-09-24T10:13:09.589Z,18.90
2022-09-24T10:15:19.118Z,18.72
2022-09-24T10:17:25.566Z,18.63
2022-09-24T10:19:29.932Z,18.63
2022-09-24T10:21:34.323Z,18.63
2022-09-24T10:23:39.247Z,18.64
2022-09-24T10:25:42.360Z,18.69
2022-09-24T10:27:45.327Z,18.74
2022-09-24T10:30:05.871Z,18.82
2022-09-24T10:32:16.074Z,18.86
2022-09-24T10:34:23.434Z,18.89
2022-09-24T10:36:28.061Z,18.83
2022-09-24T10:38:31.838Z,18.77
2022-09-24T10:40:41.066Z,18.82
2022-09-24T10:42:44.147Z,18.87
2022-09-24T10:44:52.590Z,18.89
2022-09-24T10:47:08.919Z,18.90
2022-09-24T10:49:20.435Z,18.93
2022-09-24T10:51:30.049Z,18.95
2022-09-24T10:53:44.125Z,18.94
2022-09-24T10:55:55.453Z,18.91
2022-09-24T10:58:04.053Z,18.88
2022-09-24T11:00:12.721Z,18.87
2022-09-24T11:02:43.152Z,18.79
2022-09-24T11:04:52.019Z,18.71
2022-09-24T11:07:17.959Z,18.64
2022-09-24T11:09:27.440Z,18.64
2022-09-24T11:11:40.106Z,18.69
2022-09-24T11:13:51.620Z,18.74
2022-09-24T11:16:18.058Z,18.84
2022-09-24T11:18:32.482Z,18.96
2022-09-24T11:20:37.799Z,18.98
2022-09-24T11:22:51.734Z,19.03
2022-09-24T11:25:11.224Z,19.04
2022-09-24T11:27:47.539Z,18.97
2022-09-24T11:29:59.854Z,18.90
2022-09-24T11:32:08.579Z,18.84
2022-09-24T11:34:36.899Z,18.87
2022-09-24T11:37:01.059Z,18.91
2022-09-24T11:39:24.563Z,18.95
2022-09-24T11:41:37.992Z,19.09
2022-09-24T11:44:22.239Z,19.19
2022-09-24T11:46:37.979Z,19.21
2022-09-24T11:48:56.648Z,19.13
2022-09-24T11:51:05.783Z,19.20
2022-09-24T11:53:14.465Z,19.31
2022-09-24T11:55:21.311Z,19.35
2022-09-24T11:57:26.663Z,19.34
2022-09-24T11:59:38.848Z,19.30
2022-09-24T12:01:48.697Z,19.28
2022-09-24T12:03:57.048Z,19.29
2022-09-24T12:06:04.337Z,19.22
2022-09-24T12:08:12.397Z,19.19
2022-09-24T12:10:29.823Z,19.18
2022-09-24T12:12:36.536Z,19.10
2022-09-24T12:14:45.998Z,19.06
2022-09-24T12:16:51.124Z,19.03
2022-09-24T12:18:56.952Z,19.04
2022-09-24T12:21:01.921Z,19.03
2022-09-24T12:23:07.927Z,19.06
2022-09-24T12:25:13.056Z,19.09
2022-09-24T12:27:20.418Z,19.06
2022-09-24T12:29:56.087Z,19.06
2022-09-24T12:32:22.215Z,19.07
2022-09-24T12:34:30.957Z,19.07
2022-09-24T12:36:57.028Z,19.12
2022-09-24T12:39:03.847Z,19.07
2022-09-24T12:41:22.077Z,19.00
2022-09-24T12:43:31.410Z,18.98
2022-09-24T12:45:35.209Z,18.88
2022-09-24T12:47:47.274Z,18.84
2022-09-24T12:49:53.805Z,18.76
2022-09-24T12:51:57.984Z,18.71
2022-09-24T12:54:07.115Z,18.69
2022-09-24T12:56:11.403Z,18.72
2022-09-24T12:58:29.283Z,18.72
2022-09-24T13:00:38.440Z,18.69
2022-09-24T13:02:46.249Z,18.69
2022-09-24T13:04:52.776Z,18.71
2022-09-24T13:06:56.058Z,18.71
2022-09-24T13:08:59.156Z,18.64
2022-09-24T13:11:05.768Z,18.63
2022-09-24T13:13:22.704Z,18.57
2022-09-24T13:15:31.963Z,18.47
2022-09-24T13:17:38.172Z,18.41
2022-09-24T13:19:43.631Z,18.40
2022-09-24T13:21:54.843Z,18.33
2022-09-24T13:23:58.462Z,18.26
2022-09-24T13:26:02.930Z,18.24
2022-09-24T13:28:21.798Z,18.22
2022-09-24T13:30:35.986Z,18.19
2022-09-24T13:32:45.105Z,18.12
2022-09-24T13:34:50.428Z,18.05
2022-09-24T13:36:58.438Z,18.03
2022-09-24T13:39:06.077Z,17.97
2022-09-24T13:41:22.317Z,17.94
2022-09-24T13:43:36.832Z,17.92
2022-09-24T13:45:43.724Z,17.89
2022-09-24T13:47:49.039Z,17.85
2022-09-24T13:49:53.128Z,17.82
2022-09-24T13:52:04.097Z,17.76
2022-09-24T13:54:13.147Z,17.69
2022-09-24T13:56:18.366Z,17.70
2022-09-24T13:58:28.665Z,17.70
2022-09-24T14:00:32.727Z,17.68
2022-09-24T14:02:38.883Z,17.70
2022-09-24T14:04:43.126Z,17.70
2022-09-24T14:06:50.385Z,17.71
2022-09-24T14:08:53.338Z,17.71
2022-09-24T14:11:08.015Z,17.74
2022-09-24T14:13:19.274Z,17.71
2022-09-24T14:15:22.324Z,17.62
2022-09-24T14:17:25.898Z,17.59
2022-09-24T14:19:30.271Z,17.59
2022-09-24T14:21:35.573Z,17.59
2022-09-24T14:23:41.396Z,17.60
2022-09-24T14:25:44.413Z,17.64
2022-09-24T14:27:49.487Z,17.66
2022-09-24T14:29:55.805Z,17.71
2022-09-24T14:32:00.168Z,17.76
2022-09-24T14:34:03.795Z,17.80
2022-09-24T14:36:11.679Z,17.85
2022-09-24T14:38:16.532Z,17.92
2022-09-24T14:40:21.883Z,17.93
2022-09-24T14:42:28.232Z,17.90
2022-09-24T14:44:31.334Z,17.84
2022-09-24T14:46:36.481Z,17.81
2022-09-24T14:48:41.011Z,17.79
2022-09-24T14:50:44.089Z,17.81
2022-09-24T14:52:56.679Z,17.81
2022-09-24T14:55:09.797Z,17.83
2022-09-24T14:57:24.490Z,17.80
2022-09-24T14:59:31.596Z,17.75
2022-09-24T15:01:34.855Z,17.76
2022-09-24T15:03:40.966Z,17.78
2022-09-24T15:05:46.175Z,17.78
2022-09-24T15:07:50.763Z,17.81
2022-09-24T15:09:54.957Z,17.83
2022-09-24T15:12:08.700Z,17.79
2022-09-24T15:14:15.648Z,17.75
2022-09-24T15:16:21.298Z,17.71
2022-09-24T15:18:24.484Z,17.68
2022-09-24T15:20:27.501Z,17.69
2022-09-24T15:22:31.510Z,17.72
2022-09-24T15:24:35.848Z,17.72
2022-09-24T15:26:41.459Z,17.73
2022-09-24T15:28:44.397Z,17.76
2022-09-24T15:30:47.421Z,17.78
2022-09-24T15:32:51.163Z,17.79
2022-09-24T15:34:54.989Z,17.80
2022-09-24T15:36:59.735Z,17.78
2022-09-24T15:39:04.876Z,17.77
2022-09-24T15:41:09.801Z,17.77
2022-09-24T15:43:21.999Z,17.77
2022-09-24T15:45:26.679Z,17.78
2022-09-24T15:47:29.690Z,17.78
2022-09-24T15:49:32.714Z,17.76
2022-09-24T15:51:35.717Z,17.77
2022-09-24T15:53:38.670Z,17.79
2022-09-24T15:55:41.727Z,17.80
2022-09-24T15:57:46.900Z,17.80
2022-09-24T15:59:50.115Z,17.79
2022-09-24T16:01:55.575Z,17.77
2022-09-24T16:03:58.842Z,17.76
2022-09-24T16:06:02.066Z,17.75
2022-09-24T16:08:04.983Z,17.73
2022-09-24T16:10:09.213Z,17.73
2022-09-24T16:12:15.250Z,17.72
2022-09-24T16:14:19.680Z,17.71
2022-09-24T16:16:22.807Z,17.72
2022-09-24T16:18:26.788Z,17.71
2022-09-24T16:20:29.836Z,17.68
2022-09-24T16:22:32.784Z,17.68
2022-09-24T16:24:36.134Z,17.66
2022-09-24T16:26:39.542Z,17.66
2022-09-24T16:28:42.526Z,17.67
2022-09-24T16:30:46.915Z,17.67
2022-09-24T16:32:50.080Z,17.65
2022-09-24T16:34:54.814Z,17.62
2022-09-24T16:36:57.852Z,17.60
2022-09-24T16:39:02.126Z,17.58
2022-09-24T16:41:05.494Z,17.55
2022-09-24T16:43:08.543Z,17.56
2022-09-24T16:45:12.470Z,17.52
2022-09-24T16:47:17.660Z,17.52
2022-09-24T16:49:20.655Z,17.50
2022-09-24T16:51:23.687Z,17.48
2022-09-24T16:53:26.648Z,17.47
2022-09-24T16:55:29.745Z,17.45
2022-09-24T16:57:32.829Z,17.41
2022-09-24T16:59:36.653Z,17.39
2022-09-24T17:01:42.328Z,17.35
2022-09-24T17:03:51.701Z,17.33
2022-09-24T17:05:54.656Z,17.31
2022-09-24T17:07:57.593Z,17.28
2022-09-24T17:10:15.981Z,17.25
2022-09-24T17:12:19.227Z,17.19
2022-09-24T17:14:22.223Z,17.14
2022-09-24T17:16:25.906Z,17.09
2022-09-24T17:18:28.870Z,17.04
2022-09-24T17:20:33.189Z,16.99
2022-09-24T17:22:36.308Z,16.98
2022-09-24T17:24:40.095Z,16.94
2022-09-24T17:26:43.111Z,16.91
2022-09-24T17:28:47.706Z,16.87
2022-09-24T17:30:52.310Z,16.83
2022-09-24T17:32:56.019Z,16.82
2022-09-24T17:34:59.033Z,16.82
2022-09-24T17:37:03.380Z,16.81
2022-09-24T17:39:07.096Z,16.80
2022-09-24T17:41:12.246Z,16.79
2022-09-24T17:43:15.237Z,16.77
2022-09-24T17:45:18.201Z,16.78
2022-09-24T17:47:21.175Z,16.75
2022-09-24T17:49:24.227Z,16.75
2022-09-24T17:51:30.350Z,16.75
2022-09-24T17:53:36.342Z,16.74
2022-09-24T17:55:41.275Z,16.72
2022-09-24T17:57:44.714Z,16.70
2022-09-24T17:59:47.709Z,16.67
2022-09-24T18:01:51.357Z,16.68
2022-09-24T18:03:55.132Z,16.66
2022-09-24T18:06:01.235Z,16.63
2022-09-24T18:08:04.611Z,16.64
2022-09-24T18:10:09.820Z,16.64
2022-09-24T18:12:17.057Z,16.62
2022-09-24T18:14:22.088Z,16.57
2022-09-24T18:16:26.675Z,16.57
2022-09-24T18:18:29.704Z,16.54
2022-09-24T18:20:32.762Z,16.50
2022-09-24T18:22:35.722Z,16.50
2022-09-24T18:24:38.881Z,16.50
2022-09-24T18:26:43.206Z,16.50
2022-09-24T18:28:49.357Z,16.50
2022-09-24T18:31:04.647Z,16.48
2022-09-24T18:33:08.136Z,16.47
2022-09-24T18:35:11.099Z,16.44
2022-09-24T18:37:14.014Z,16.43
2022-09-24T18:39:23.962Z,16.40
2022-09-24T18:41:29.870Z,16.38
2022-09-24T18:43:34.210Z,16.34
2022-09-24T18:45:37.325Z,16.32
2022-09-24T18:47:40.389Z,16.31
2022-09-24T18:49:44.235Z,16.31
2022-09-24T18:51:47.555Z,16.30
2022-09-24T18:53:52.665Z,16.32
2022-09-24T18:55:55.774Z,16.32
2022-09-24T18:57:58.747Z,16.32
2022-09-24T19:00:03.263Z,16.30
2022-09-24T19:02:06.370Z,16.27
2022-09-24T19:04:11.443Z,16.27
2022-09-24T19:06:14.516Z,16.27
2022-09-24T19:08:17.969Z,16.27
2022-09-24T19:10:20.936Z,16.24
2022-09-24T19:12:24.022Z,16.24
2022-09-24T19:14:27.247Z,16.22
2022-09-24T19:16:32.069Z,16.21
2022-09-24T19:18:36.598Z,16.21
2022-09-24T19:20:39.687Z,16.21
2022-09-24T19:22:50.023Z,16.19
2022-09-24T19:24:53.009Z,16.18
2022-09-24T19:26:56.037Z,16.14
2022-09-24T19:28:59.783Z,16.14
2022-09-24T19:31:03.856Z,16.13
2022-09-24T19:33:09.737Z,16.13
2022-09-24T19:35:14.095Z,16.10
2022-09-24T19:37:17.172Z,16.07
2022-09-24T19:39:20.281Z,16.04
2022-09-24T19:41:26.169Z,16.05
2022-09-24T19:43:29.512Z,16.04
2022-09-24T19:45:32.609Z,16.01
2022-09-24T19:47:35.655Z,16.00
2022-09-24T19:49:40.012Z,15.99
2022-09-24T19:51:43.046Z,15.99
2022-09-24T19:53:48.772Z,15.97
2022-09-24T19:55:51.708Z,15.96
2022-09-24T19:57:54.665Z,15.97
2022-09-24T19:59:57.637Z,15.96
2022-09-24T20:02:00.719Z,15.97
2022-09-24T20:04:05.379Z,15.94
2022-09-24T20:06:11.277Z,15.92
2022-09-24T20:08:15.130Z,15.88
2022-09-24T20:10:18.222Z,15.85
2022-09-24T20:12:21.117Z,15.84
2022-09-24T20:14:24.081Z,15.81
2022-09-24T20:16:28.317Z,15.80
2022-09-24T20:18:34.620Z,15.81
2022-09-24T20:20:37.670Z,15.80
2022-09-24T20:22:42.000Z,15.80
2022-09-24T20:24:44.977Z,15.80
2022-09-24T20:27:05.612Z,15.79
2022-09-24T20:29:09.648Z,15.80
2022-09-24T20:31:13.552Z,15.79
2022-09-24T20:33:17.667Z,15.79
2022-09-24T20:35:21.285Z,15.78
2022-09-24T20:37:24.495Z,15.75
2022-09-24T20:39:29.547Z,15.74
2022-09-24T20:41:32.537Z,15.73
2022-09-24T20:43:35.518Z,15.72
2022-09-24T20:45:41.218Z,15.71
2022-09-24T20:47:44.202Z,15.70
2022-09-24T20:49:47.184Z,15.70
2022-09-24T20:51:56.035Z,15.69
2022-09-24T20:54:00.764Z,15.66
2022-09-24T20:56:06.074Z,15.67
2022-09-24T20:58:09.086Z,15.67
2022-09-24T21:00:14.803Z,15.65
2022-09-24T21:02:17.877Z,15.63
2022-09-24T21:04:22.371Z,15.63
2022-09-24T21:06:25.425Z,15.63
2022-09-24T21:08:28.985Z,15.63
2022-09-24T21:10:32.492Z,15.63
2022-09-24T21:12:37.151Z,15.64
2022-09-24T21:14:40.279Z,15.64
2022-09-24T21:16:43.230Z,15.63
2022-09-24T21:18:46.557Z,15.62
2022-09-24T21:20:49.707Z,15.62
2022-09-24T21:22:52.711Z,15.62
2022-09-24T21:24:55.767Z,15.62
2022-09-24T21:27:00.068Z,15.62
2022-09-24T21:29:08.121Z,15.61
2022-09-24T21:31:11.310Z,15.61
2022-09-24T21:33:14.495Z,15.58
2022-09-24T21:35:17.668Z,15.59
2022-09-24T21:37:20.928Z,15.56
2022-09-24T21:39:26.510Z,15.55
2022-09-24T21:41:31.172Z,15.55
2022-09-24T21:43:35.124Z,15.55
2022-09-24T21:45:39.652Z,15.55
2022-09-24T21:47:42.621Z,15.55
2022-09-24T21:49:45.686Z,15.54
2022-09-24T21:51:48.647Z,15.55
2022-09-24T21:53:53.069Z,15.55
2022-09-24T21:55:56.013Z,15.55
2022-09-24T21:57:59.021Z,15.55
2022-09-24T22:00:04.368Z,15.55
2022-09-24T22:02:11.156Z,15.55
2022-09-24T22:04:14.242Z,15.56
2022-09-24T22:06:17.447Z,15.56
2022-09-24T22:08:27.159Z,15.56
2022-09-24T22:10:30.131Z,15.56
2022-09-24T22:12:35.361Z,15.58
2022-09-24T22:14:38.347Z,15.59
2022-09-24T22:16:41.501Z,15.59
2022-09-24T22:18:45.842Z,15.59
2022-09-24T22:20:49.748Z,15.59
2022-09-24T22:22:52.689Z,15.58
2022-09-24T22:24:55.755Z,15.58
2022-09-24T22:26:59.014Z,15.57
2022-09-24T22:29:03.766Z,15.60
2022-09-24T22:31:08.004Z,15.59
2022-09-24T22:33:31.060Z,15.56
2022-09-24T22:35:50.295Z,15.55
2022-09-24T22:37:53.260Z,15.55
2022-09-24T22:39:56.241Z,15.55
2022-09-24T22:41:59.146Z,15.57
2022-09-24T22:44:02.270Z,15.57
2022-09-24T22:46:07.264Z,15.57
2022-09-24T22:48:10.355Z,15.59
2022-09-24T22:50:13.728Z,15.60
2022-09-24T22:52:18.031Z,15.59
2022-09-24T22:54:20.978Z,15.58
2022-09-24T22:56:25.255Z,15.59
2022-09-24T22:58:28.225Z,15.58
2022-09-24T23:00:31.163Z,15.58
2022-09-24T23:02:35.473Z,15.59
2022-09-24T23:04:38.659Z,15.60
2022-09-24T23:06:42.126Z,15.61
2022-09-24T23:08:46.397Z,15.60
2022-09-24T23:10:49.308Z,15.61
2022-09-24T23:12:52.218Z,15.60
2022-09-24T23:14:58.078Z,15.60
2022-09-24T23:17:01.037Z,15.58
2022-09-24T23:19:05.892Z,15.58
2022-09-24T23:21:10.639Z,15.59
2022-09-24T23:23:13.650Z,15.58
2022-09-24T23:25:18.474Z,15.57
2022-09-24T23:27:21.873Z,15.57
2022-09-24T23:29:25.079Z,15.57
2022-09-24T23:31:29.533Z,15.59
2022-09-24T23:33:33.413Z,15.59
2022-09-24T23:35:36.278Z,15.58
2022-09-24T23:37:39.217Z,15.60
2022-09-24T23:39:42.145Z,15.58
2022-09-24T23:41:46.380Z,15.53
2022-09-24T23:43:49.332Z,15.49
2022-09-24T23:45:52.420Z,15.47
2022-09-24T23:47:55.403Z,15.46
2022-09-24T23:49:58.715Z,15.45
2022-09-24T23:52:01.996Z,15.47
2022-09-24T23:54:05.174Z,15.46
2022-09-24T23:56:09.166Z,15.45
2022-09-24T23:58:14.882Z,15.44
